• Join FlightAware (Why Join?)
  • Login
  • US Flag 
05:52AM EDT


 

Airport Tracker/Info


-or-


 

Live Flight TrackerFlight Track Log ✈ EGF4393 ✈ 23-Apr-2013 ✈ KORD - KCWA

Flight Track Log - Related Links

Times and Time Zones

All times are in EDT time to prevent confusion due to time zone crossing. See the EGF4393 flight status page for this flight to view local times or setup timezone preferences in your user account.

Time Position Orientation Groundspeed Altitude Reporting Facility
EDT Latitude Longitude Course Direction KTS MPH feet Rate Location/Type
03:43PM 41.9708 -87.9553 346° North 185 213 2,900  Level Chicago Center
03:44PM 42.0247 -87.9978 330° Northwest 236 272 5,000 2,400 Climbing Chicago Center
03:45PM 42.2590 -87.9939 350° North  Level FlightAware Approximate
03:45PM 42.1003 -88.0119 352° North 268 308 7,900  Level Chicago Center
03:46PM 42.3577 -88.0205 340° North  Level FlightAware Approximate
03:46PM 42.1847 -88.0028 North 299 344 10,200  Level Chicago Center
03:47PM 42.4541 -88.0575 352° North  Level FlightAware Approximate
03:47PM 42.2767 -87.9967 North 327 376 12,400  Level Chicago Center
03:48PM 42.5494 -88.0942 346° North  Level FlightAware Approximate
03:49PM 42.6338 -88.1223 346° North  Level FlightAware Approximate
03:49PM 42.3917 -87.9867 North 349 402 15,300  Level Chicago Center
03:50PM 42.4886 -88.0050 352° North 357 411 16,900 1,200 Climbing Chicago Center
03:51PM 42.5897 -88.0469 343° North 378 435 17,900 960 Climbing Chicago Center
03:52PM 42.6967 -88.0900 344° North 398 458 18,900 1,200 Climbing Chicago Center
03:53PM 42.8239 -88.1422 343° North 408 470 20,400 1,380 Climbing Chicago Center
03:54PM 42.9342 -88.1869 343° North 412 474 21,800 720 Climbing Chicago Center
03:55PM 43.0450 -88.2317 344° North 415 478 22,000 60 Climbing Chicago Center
03:56PM 43.1578 -88.2764 344° North 420 483 22,000  Level Chicago Center
03:57PM 43.2706 -88.3217 344° North 423 487 22,000  Level Chicago Center
03:58PM 43.4022 -88.3756 343° North 426 490 22,000  Level Chicago Center
03:59PM 43.5119 -88.4214 343° North 426 490 22,000 -720 Level Chicago Center
04:00PM 43.6233 -88.4667 344° North 425 489 20,600 -1,440 Descending Chicago Center
04:00PM 43.6783 -88.4897 343° North 422 486 19,900 -1,680 Descending Minneapolis Center
04:01PM 43.7919 -88.5372 343° North 424 488 18,200 -1,800 Descending Minneapolis Center
04:02PM 43.9042 -88.5847 343° North 423 487 16,200 -2,040 Descending Minneapolis Center
04:03PM 44.0311 -88.6381 343° North 410 472 14,100 -1,140 Descending Minneapolis Center
04:04PM 44.1361 -88.6811 344° North 396 456 13,900 -300 Descending Minneapolis Center
04:05PM 44.2361 -88.7253 342° North 381 438 13,600 -840 Descending Minneapolis Center
04:07PM 44.3383 -88.7697 343° North 383 441 12,200 -1,380 Descending Minneapolis Center
04:08PM 44.4189 -88.8300 332° Northwest 330 380 10,800 -1,380 Descending Minneapolis Center
04:09PM 44.4717 -88.9089 313° West 283 326 9,400 -1,440 Descending Minneapolis Center
04:10PM 44.5206 -88.9864 312° West 270 311 7,900 -1,620 Descending Minneapolis Center
04:11PM 44.5739 -89.0731 311° West 256 295 6,100 -1,320 Descending Minneapolis Center
04:12PM 44.6106 -89.1583 301° West 249 287 5,200 -1,140 Descending Minneapolis Center
04:13PM 44.6386 -89.2489 294° West 244 281 3,800 -1,140 Descending Minneapolis Center
04:14PM 44.6531 -89.3314 284° West 236 272 2,900 -420 Descending Minneapolis Center
04:15PM 44.6494 -89.4281 267° West 235 270 3,000 60 Climbing Minneapolis Center